Carpenter Bottom, North Carolina
Current Conditions -  °F | °C
As of 11:15 AM on Friday 19 Dec 2014 (Local Time) from KTNB Reporting Station
Clear Clear  
Wind Chill: 31°   Ceiling: Unl
Heat Index: 38°   Visibility: 10mi
Dew Point: 16°   Wind: 12mph
Humidity: 40%   Direction: 300°WNW
Pressure: 30.11"   Gusts: NA
Location:  36.0825°N, 81.9964°W
Report Text: KTNB 191615Z AUTO 30010KT 10SM CLR 04/M09 A3011 RMK AO2 T00351089
Loading
Personal Weather Stations






























Interactive Weather Map New forecast layout! Learn more

10-Day Weather Forecast

Advertisements
Track Severe Weather on mobile